Linden, Iowa
Current Conditions -  °F | °C
As of 2:55 AM on Saturday 22 Nov 2014 (Local Time) from KPRO Reporting Station
Haze Haze  
Wind Chill: 37°   Ceiling: 600
Heat Index: 37°   Visibility: 4mi
Dew Point: 36°   Wind: 3mph
Humidity: 97%   Direction: 190°S
Pressure: 29.96"   Gusts: NA
Location:  41.64°N, 94.27°W
Report Text: KPRO 220855Z AUTO 19003KT 4SM BR OVC006 03/02 A2996 RMK AO2 T00250020
Loading
Personal Weather Stations






























Interactive Weather Map New forecast layout! Learn more

10-Day Weather Forecast

Advertisements
Track Severe Weather on mobile